sensor_id;sensor_type;location;lat;lon;timestamp;P1;durP1;ratioP1;P2;durP2;ratioP2
46753;SDS011;32500;50.620;3.400;2022-07-29T00:00:36;59.95;;;50.30;;
46753;SDS011;32500;50.620;3.400;2022-07-29T00:03:02;60.30;;;50.33;;
46753;SDS011;32500;50.620;3.400;2022-07-29T00:05:28;61.13;;;50.33;;
46753;SDS011;32500;50.620;3.400;2022-07-29T00:07:53;61.20;;;50.22;;
46753;SDS011;32500;50.620;3.400;2022-07-29T00:10:19;60.85;;;50.60;;
46753;SDS011;32500;50.620;3.400;2022-07-29T00:12:45;60.13;;;50.50;;
46753;SDS011;32500;50.620;3.400;2022-07-29T00:15:11;60.63;;;50.40;;
46753;SDS011;32500;50.620;3.400;2022-07-29T00:17:37;60.08;;;50.25;;
46753;SDS011;32500;50.620;3.400;2022-07-29T00:20:03;60.42;;;50.50;;
46753;SDS011;32500;50.620;3.400;2022-07-29T00:22:29;60.45;;;50.60;;
46753;SDS011;32500;50.620;3.400;2022-07-29T00:24:55;61.63;;;50.42;;
46753;SDS011;32500;50.620;3.400;2022-07-29T00:27:20;60.55;;;50.42;;
46753;SDS011;32500;50.620;3.400;2022-07-29T00:29:46;60.08;;;50.35;;
46753;SDS011;32500;50.620;3.400;2022-07-29T00:32:12;60.92;;;50.22;;
46753;SDS011;32500;50.620;3.400;2022-07-29T00:34:38;61.22;;;50.67;;
46753;SDS011;32500;50.620;3.400;2022-07-29T00:37:23;61.00;;;50.67;;
46753;SDS011;32500;50.620;3.400;2022-07-29T00:39:48;59.95;;;50.35;;
46753;SDS011;32500;50.620;3.400;2022-07-29T00:42:14;59.85;;;50.35;;
46753;SDS011;32500;50.620;3.400;2022-07-29T00:44:41;60.88;;;50.55;;
46753;SDS011;32500;50.620;3.400;2022-07-29T00:47:08;60.10;;;50.50;;
46753;SDS011;32500;50.620;3.400;2022-07-29T00:49:35;61.10;;;50.58;;
46753;SDS011;32500;50.620;3.400;2022-07-29T00:52:02;60.67;;;50.63;;
46753;SDS011;32500;50.620;3.400;2022-07-29T00:54:29;61.03;;;50.60;;
46753;SDS011;32500;50.620;3.400;2022-07-29T00:56:56;60.67;;;50.65;;
46753;SDS011;32500;50.620;3.400;2022-07-29T00:59:23;60.67;;;50.53;;
46753;SDS011;32500;50.620;3.400;2022-07-29T01:01:48;60.22;;;50.72;;
46753;SDS011;32500;50.620;3.400;2022-07-29T01:04:14;60.70;;;50.63;;
46753;SDS011;32500;50.620;3.400;2022-07-29T01:06:40;59.97;;;50.30;;
46753;SDS011;32500;50.620;3.400;2022-07-29T01:09:06;61.13;;;50.63;;
46753;SDS011;32500;50.620;3.400;2022-07-29T01:11:32;61.35;;;50.67;;
46753;SDS011;32500;50.620;3.400;2022-07-29T01:13:59;61.67;;;50.38;;
46753;SDS011;32500;50.620;3.400;2022-07-29T01:16:29;60.58;;;50.65;;
46753;SDS011;32500;50.620;3.400;2022-07-29T01:19:00;61.35;;;50.75;;
46753;SDS011;32500;50.620;3.400;2022-07-29T01:21:47;61.92;;;50.70;;
46753;SDS011;32500;50.620;3.400;2022-07-29T01:27:18;60.30;;;50.77;;
46753;SDS011;32500;50.620;3.400;2022-07-29T01:30:13;61.92;;;50.65;;
46753;SDS011;32500;50.620;3.400;2022-07-29T01:32:39;60.00;;;50.38;;
46753;SDS011;32500;50.620;3.400;2022-07-29T01:35:10;61.38;;;50.80;;
46753;SDS011;32500;50.620;3.400;2022-07-29T01:37:51;61.63;;;50.72;;
46753;SDS011;32500;50.620;3.400;2022-07-29T01:40:45;60.95;;;50.63;;
46753;SDS011;32500;50.620;3.400;2022-07-29T01:43:15;60.63;;;50.65;;
46753;SDS011;32500;50.620;3.400;2022-07-29T01:45:45;60.22;;;50.58;;
46753;SDS011;32500;50.620;3.400;2022-07-29T01:50:51;61.22;;;50.42;;
46753;SDS011;32500;50.620;3.400;2022-07-29T01:53:25;61.20;;;50.42;;
46753;SDS011;32500;50.620;3.400;2022-07-29T01:55:55;60.63;;;50.58;;
46753;SDS011;32500;50.620;3.400;2022-07-29T01:58:24;61.67;;;50.85;;
46753;SDS011;32500;50.620;3.400;2022-07-29T02:00:51;61.42;;;51.08;;
46753;SDS011;32500;50.620;3.400;2022-07-29T02:03:18;60.60;;;50.60;;
46753;SDS011;32500;50.620;3.400;2022-07-29T02:05:45;60.35;;;50.60;;
46753;SDS011;32500;50.620;3.400;2022-07-29T02:08:14;60.38;;;50.58;;
46753;SDS011;32500;50.620;3.400;2022-07-29T02:10:42;59.92;;;50.33;;
46753;SDS011;32500;50.620;3.400;2022-07-29T02:13:10;60.92;;;50.72;;
46753;SDS011;32500;50.620;3.400;2022-07-29T02:15:37;60.45;;;50.85;;
46753;SDS011;32500;50.620;3.400;2022-07-29T02:18:25;61.42;;;50.53;;
46753;SDS011;32500;50.620;3.400;2022-07-29T02:20:53;61.28;;;50.85;;
46753;SDS011;32500;50.620;3.400;2022-07-29T02:23:21;60.83;;;50.63;;
46753;SDS011;32500;50.620;3.400;2022-07-29T02:25:49;61.42;;;50.95;;
46753;SDS011;32500;50.620;3.400;2022-07-29T02:28:18;60.10;;;50.80;;
46753;SDS011;32500;50.620;3.400;2022-07-29T02:30:46;60.90;;;50.58;;
46753;SDS011;32500;50.620;3.400;2022-07-29T02:33:15;60.75;;;50.85;;
46753;SDS011;32500;50.620;3.400;2022-07-29T02:35:42;60.97;;;50.63;;
46753;SDS011;32500;50.620;3.400;2022-07-29T02:38:11;62.72;;;50.78;;
46753;SDS011;32500;50.620;3.400;2022-07-29T02:40:58;62.17;;;50.67;;
46753;SDS011;32500;50.620;3.400;2022-07-29T02:43:28;60.15;;;50.70;;
46753;SDS011;32500;50.620;3.400;2022-07-29T02:45:56;60.35;;;50.75;;
46753;SDS011;32500;50.620;3.400;2022-07-29T02:48:27;60.47;;;50.45;;
46753;SDS011;32500;50.620;3.400;2022-07-29T02:51:04;60.38;;;50.67;;
46753;SDS011;32500;50.620;3.400;2022-07-29T02:53:36;61.67;;;51.05;;
46753;SDS011;32500;50.620;3.400;2022-07-29T02:56:06;60.50;;;50.85;;
46753;SDS011;32500;50.620;3.400;2022-07-29T02:58:38;60.70;;;50.78;;
46753;SDS011;32500;50.620;3.400;2022-07-29T03:01:15;60.70;;;50.65;;
46753;SDS011;32500;50.620;3.400;2022-07-29T03:03:48;61.08;;;50.47;;
46753;SDS011;32500;50.620;3.400;2022-07-29T03:06:17;60.28;;;50.45;;
46753;SDS011;32500;50.620;3.400;2022-07-29T03:08:44;59.45;;;50.42;;
46753;SDS011;32500;50.620;3.400;2022-07-29T03:11:10;59.55;;;50.45;;
46753;SDS011;32500;50.620;3.400;2022-07-29T03:13:37;60.35;;;50.75;;
46753;SDS011;32500;50.620;3.400;2022-07-29T03:16:04;60.60;;;50.60;;
46753;SDS011;32500;50.620;3.400;2022-07-29T03:18:31;59.92;;;50.30;;
46753;SDS011;32500;50.620;3.400;2022-07-29T03:20:57;59.97;;;50.53;;
46753;SDS011;32500;50.620;3.400;2022-07-29T03:23:23;60.78;;;50.60;;
46753;SDS011;32500;50.620;3.400;2022-07-29T03:25:51;59.97;;;50.33;;
46753;SDS011;32500;50.620;3.400;2022-07-29T03:28:17;60.15;;;50.40;;
46753;SDS011;32500;50.620;3.400;2022-07-29T03:30:43;61.17;;;50.45;;
46753;SDS011;32500;50.620;3.400;2022-07-29T03:33:09;60.42;;;50.55;;
46753;SDS011;32500;50.620;3.400;2022-07-29T03:35:34;60.08;;;50.28;;
46753;SDS011;32500;50.620;3.400;2022-07-29T03:38:00;60.33;;;50.50;;
46753;SDS011;32500;50.620;3.400;2022-07-29T03:40:32;61.10;;;50.63;;
46753;SDS011;32500;50.620;3.400;2022-07-29T03:43:03;60.85;;;50.67;;
46753;SDS011;32500;50.620;3.400;2022-07-29T03:45:32;61.53;;;50.70;;
46753;SDS011;32500;50.620;3.400;2022-07-29T03:47:59;60.85;;;50.80;;
46753;SDS011;32500;50.620;3.400;2022-07-29T03:50:29;60.85;;;50.70;;
46753;SDS011;32500;50.620;3.400;2022-07-29T03:52:57;60.00;;;50.40;;
46753;SDS011;32500;50.620;3.400;2022-07-29T03:55:23;60.30;;;50.53;;
46753;SDS011;32500;50.620;3.400;2022-07-29T03:57:50;60.55;;;50.22;;
46753;SDS011;32500;50.620;3.400;2022-07-29T04:00:16;60.45;;;50.65;;
46753;SDS011;32500;50.620;3.400;2022-07-29T04:02:42;60.05;;;50.50;;
46753;SDS011;32500;50.620;3.400;2022-07-29T04:05:13;61.35;;;50.80;;
46753;SDS011;32500;50.620;3.400;2022-07-29T04:07:48;60.17;;;50.28;;
46753;SDS011;32500;50.620;3.400;2022-07-29T04:10:14;60.90;;;50.67;;
46753;SDS011;32500;50.620;3.400;2022-07-29T04:12:41;59.72;;;50.35;;
46753;SDS011;32500;50.620;3.400;2022-07-29T04:15:08;60.40;;;50.58;;
46753;SDS011;32500;50.620;3.400;2022-07-29T04:17:34;60.10;;;50.42;;
46753;SDS011;32500;50.620;3.400;2022-07-29T04:20:00;61.72;;;50.80;;
46753;SDS011;32500;50.620;3.400;2022-07-29T04:22:26;59.72;;;50.45;;
46753;SDS011;32500;50.620;3.400;2022-07-29T04:24:51;60.50;;;50.63;;
46753;SDS011;32500;50.620;3.400;2022-07-29T04:27:17;59.85;;;50.17;;
46753;SDS011;32500;50.620;3.400;2022-07-29T04:29:42;60.22;;;50.65;;
46753;SDS011;32500;50.620;3.400;2022-07-29T04:32:08;60.78;;;50.42;;
46753;SDS011;32500;50.620;3.400;2022-07-29T04:34:34;60.08;;;50.75;;
46753;SDS011;32500;50.620;3.400;2022-07-29T04:36:59;61.33;;;50.55;;
46753;SDS011;32500;50.620;3.400;2022-07-29T04:39:25;61.00;;;50.75;;
46753;SDS011;32500;50.620;3.400;2022-07-29T04:41:50;60.17;;;50.63;;
46753;SDS011;32500;50.620;3.400;2022-07-29T04:44:16;60.58;;;50.80;;
46753;SDS011;32500;50.620;3.400;2022-07-29T04:46:42;63.85;;;50.85;;
46753;SDS011;32500;50.620;3.400;2022-07-29T04:49:08;60.58;;;50.40;;
46753;SDS011;32500;50.620;3.400;2022-07-29T04:51:34;60.42;;;50.42;;
46753;SDS011;32500;50.620;3.400;2022-07-29T04:54:00;59.65;;;50.35;;
46753;SDS011;32500;50.620;3.400;2022-07-29T04:56:25;59.88;;;50.50;;
46753;SDS011;32500;50.620;3.400;2022-07-29T04:58:51;59.45;;;50.33;;
46753;SDS011;32500;50.620;3.400;2022-07-29T05:01:17;59.53;;;50.45;;
46753;SDS011;32500;50.620;3.400;2022-07-29T05:03:43;60.33;;;50.40;;
46753;SDS011;32500;50.620;3.400;2022-07-29T05:06:10;59.55;;;50.40;;
46753;SDS011;32500;50.620;3.400;2022-07-29T05:08:35;59.60;;;50.33;;
46753;SDS011;32500;50.620;3.400;2022-07-29T05:11:02;59.67;;;50.42;;
46753;SDS011;32500;50.620;3.400;2022-07-29T05:13:28;61.03;;;50.78;;
46753;SDS011;32500;50.620;3.400;2022-07-29T05:15:54;60.50;;;50.63;;
46753;SDS011;32500;50.620;3.400;2022-07-29T05:18:19;60.90;;;50.65;;
46753;SDS011;32500;50.620;3.400;2022-07-29T05:20:45;59.80;;;50.65;;
46753;SDS011;32500;50.620;3.400;2022-07-29T05:23:11;62.08;;;50.35;;
46753;SDS011;32500;50.620;3.400;2022-07-29T05:25:37;61.55;;;50.40;;
46753;SDS011;32500;50.620;3.400;2022-07-29T05:28:03;59.25;;;49.97;;
46753;SDS011;32500;50.620;3.400;2022-07-29T05:30:29;59.92;;;49.97;;
46753;SDS011;32500;50.620;3.400;2022-07-29T05:32:55;59.72;;;50.05;;
46753;SDS011;32500;50.620;3.400;2022-07-29T05:35:20;60.35;;;50.03;;
46753;SDS011;32500;50.620;3.400;2022-07-29T05:37:46;61.92;;;50.15;;
46753;SDS011;32500;50.620;3.400;2022-07-29T05:40:12;58.40;;;49.60;;
46753;SDS011;32500;50.620;3.400;2022-07-29T05:42:38;59.42;;;49.85;;
46753;SDS011;32500;50.620;3.400;2022-07-29T05:45:03;61.13;;;50.15;;
46753;SDS011;32500;50.620;3.400;2022-07-29T05:47:30;58.75;;;49.85;;
46753;SDS011;32500;50.620;3.400;2022-07-29T05:49:55;59.25;;;49.90;;
46753;SDS011;32500;50.620;3.400;2022-07-29T05:52:21;59.50;;;50.15;;
46753;SDS011;32500;50.620;3.400;2022-07-29T05:54:47;58.25;;;49.72;;
46753;SDS011;32500;50.620;3.400;2022-07-29T05:57:16;58.95;;;50.05;;
46753;SDS011;32500;50.620;3.400;2022-07-29T05:59:46;59.22;;;50.25;;
46753;SDS011;32500;50.620;3.400;2022-07-29T06:02:13;59.15;;;50.17;;
46753;SDS011;32500;50.620;3.400;2022-07-29T06:04:38;60.58;;;50.05;;
46753;SDS011;32500;50.620;3.400;2022-07-29T06:07:04;61.53;;;50.35;;
46753;SDS011;32500;50.620;3.400;2022-07-29T06:09:30;60.08;;;50.25;;
46753;SDS011;32500;50.620;3.400;2022-07-29T06:11:56;58.95;;;50.08;;
46753;SDS011;32500;50.620;3.400;2022-07-29T06:14:22;58.85;;;50.00;;
46753;SDS011;32500;50.620;3.400;2022-07-29T06:16:48;59.17;;;49.83;;
46753;SDS011;32500;50.620;3.400;2022-07-29T06:19:14;58.83;;;49.95;;
46753;SDS011;32500;50.620;3.400;2022-07-29T06:21:43;58.85;;;49.85;;
46753;SDS011;32500;50.620;3.400;2022-07-29T06:24:10;59.33;;;50.13;;
46753;SDS011;32500;50.620;3.400;2022-07-29T06:26:37;58.67;;;49.97;;
46753;SDS011;32500;50.620;3.400;2022-07-29T06:29:03;59.75;;;50.13;;
46753;SDS011;32500;50.620;3.400;2022-07-29T06:31:28;59.13;;;50.05;;
46753;SDS011;32500;50.620;3.400;2022-07-29T06:33:54;60.95;;;50.03;;
46753;SDS011;32500;50.620;3.400;2022-07-29T06:36:19;59.38;;;50.03;;
46753;SDS011;32500;50.620;3.400;2022-07-29T06:38:45;59.08;;;50.15;;
46753;SDS011;32500;50.620;3.400;2022-07-29T06:41:11;59.42;;;50.03;;
46753;SDS011;32500;50.620;3.400;2022-07-29T06:43:40;60.13;;;50.00;;
46753;SDS011;32500;50.620;3.400;2022-07-29T06:46:07;58.90;;;50.03;;
46753;SDS011;32500;50.620;3.400;2022-07-29T06:48:35;59.10;;;50.10;;
46753;SDS011;32500;50.620;3.400;2022-07-29T06:51:02;59.03;;;50.13;;
46753;SDS011;32500;50.620;3.400;2022-07-29T06:53:29;59.60;;;50.13;;
46753;SDS011;32500;50.620;3.400;2022-07-29T06:55:54;61.55;;;50.00;;
46753;SDS011;32500;50.620;3.400;2022-07-29T06:58:20;59.13;;;50.03;;
46753;SDS011;32500;50.620;3.400;2022-07-29T07:00:47;60.15;;;50.20;;
46753;SDS011;32500;50.620;3.400;2022-07-29T07:03:13;59.78;;;50.03;;
46753;SDS011;32500;50.620;3.400;2022-07-29T07:05:39;59.08;;;50.05;;
46753;SDS011;32500;50.620;3.400;2022-07-29T07:08:05;66.00;;;52.58;;
46753;SDS011;32500;50.620;3.400;2022-07-29T07:10:31;67.80;;;51.88;;
46753;SDS011;32500;50.620;3.400;2022-07-29T07:12:57;60.97;;;51.33;;
46753;SDS011;32500;50.620;3.400;2022-07-29T07:15:24;63.78;;;52.15;;
46753;SDS011;32500;50.620;3.400;2022-07-29T07:17:49;62.25;;;51.67;;
46753;SDS011;32500;50.620;3.400;2022-07-29T07:20:16;63.33;;;52.05;;
46753;SDS011;32500;50.620;3.400;2022-07-29T07:22:42;63.58;;;51.05;;
46753;SDS011;32500;50.620;3.400;2022-07-29T07:25:08;63.00;;;51.75;;
46753;SDS011;32500;50.620;3.400;2022-07-29T07:27:36;61.63;;;51.45;;
46753;SDS011;32500;50.620;3.400;2022-07-29T07:30:02;61.67;;;51.70;;
46753;SDS011;32500;50.620;3.400;2022-07-29T07:32:30;63.85;;;51.33;;
46753;SDS011;32500;50.620;3.400;2022-07-29T07:34:56;64.43;;;52.03;;
46753;SDS011;32500;50.620;3.400;2022-07-29T07:37:22;61.70;;;51.45;;
46753;SDS011;32500;50.620;3.400;2022-07-29T07:39:49;61.72;;;50.90;;
46753;SDS011;32500;50.620;3.400;2022-07-29T07:42:16;61.50;;;51.15;;
46753;SDS011;32500;50.620;3.400;2022-07-29T07:44:42;61.90;;;51.42;;
46753;SDS011;32500;50.620;3.400;2022-07-29T07:47:08;61.70;;;51.30;;
46753;SDS011;32500;50.620;3.400;2022-07-29T07:49:33;65.45;;;51.85;;
46753;SDS011;32500;50.620;3.400;2022-07-29T07:51:59;63.97;;;51.72;;
46753;SDS011;32500;50.620;3.400;2022-07-29T07:54:25;63.28;;;52.00;;
46753;SDS011;32500;50.620;3.400;2022-07-29T07:56:50;63.13;;;51.55;;
46753;SDS011;32500;50.620;3.400;2022-07-29T07:59:16;63.53;;;51.33;;
46753;SDS011;32500;50.620;3.400;2022-07-29T08:01:42;62.97;;;52.15;;
46753;SDS011;32500;50.620;3.400;2022-07-29T08:04:08;62.05;;;50.85;;
46753;SDS011;32500;50.620;3.400;2022-07-29T08:06:34;64.65;;;51.17;;
46753;SDS011;32500;50.620;3.400;2022-07-29T08:09:01;62.92;;;51.80;;
46753;SDS011;32500;50.620;3.400;2022-07-29T08:11:28;61.00;;;50.65;;
46753;SDS011;32500;50.620;3.400;2022-07-29T08:13:54;61.83;;;51.30;;
46753;SDS011;32500;50.620;3.400;2022-07-29T08:16:20;64.30;;;52.03;;
46753;SDS011;32500;50.620;3.400;2022-07-29T08:18:46;65.07;;;51.65;;
46753;SDS011;32500;50.620;3.400;2022-07-29T08:21:12;61.22;;;51.08;;
46753;SDS011;32500;50.620;3.400;2022-07-29T08:23:39;65.80;;;51.95;;
46753;SDS011;32500;50.620;3.400;2022-07-29T08:28:39;65.03;;;51.63;;
46753;SDS011;32500;50.620;3.400;2022-07-29T08:31:10;63.25;;;51.20;;
46753;SDS011;32500;50.620;3.400;2022-07-29T08:33:37;63.92;;;50.83;;
46753;SDS011;32500;50.620;3.400;2022-07-29T08:36:02;62.03;;;50.75;;
46753;SDS011;32500;50.620;3.400;2022-07-29T08:38:28;63.15;;;51.53;;
46753;SDS011;32500;50.620;3.400;2022-07-29T08:40:54;63.15;;;51.45;;
46753;SDS011;32500;50.620;3.400;2022-07-29T08:43:20;63.88;;;51.83;;
46753;SDS011;32500;50.620;3.400;2022-07-29T08:45:46;65.10;;;51.90;;
46753;SDS011;32500;50.620;3.400;2022-07-29T08:48:14;61.72;;;51.10;;
46753;SDS011;32500;50.620;3.400;2022-07-29T08:50:44;66.07;;;52.27;;
46753;SDS011;32500;50.620;3.400;2022-07-29T08:53:12;63.53;;;51.38;;
46753;SDS011;32500;50.620;3.400;2022-07-29T08:55:42;61.03;;;50.75;;
46753;SDS011;32500;50.620;3.400;2022-07-29T08:58:10;65.03;;;51.63;;
46753;SDS011;32500;50.620;3.400;2022-07-29T09:00:50;66.18;;;51.22;;
46753;SDS011;32500;50.620;3.400;2022-07-29T09:03:20;62.67;;;51.03;;
46753;SDS011;32500;50.620;3.400;2022-07-29T09:05:49;63.03;;;51.20;;
46753;SDS011;32500;50.620;3.400;2022-07-29T09:08:16;62.80;;;52.30;;
46753;SDS011;32500;50.620;3.400;2022-07-29T09:10:43;62.58;;;51.40;;
46753;SDS011;32500;50.620;3.400;2022-07-29T09:13:09;65.10;;;51.83;;
46753;SDS011;32500;50.620;3.400;2022-07-29T09:15:35;63.97;;;51.85;;
46753;SDS011;32500;50.620;3.400;2022-07-29T09:18:01;62.30;;;51.40;;
46753;SDS011;32500;50.620;3.400;2022-07-29T09:20:27;63.60;;;51.65;;
46753;SDS011;32500;50.620;3.400;2022-07-29T09:23:13;65.47;;;52.08;;
46753;SDS011;32500;50.620;3.400;2022-07-29T09:25:39;65.45;;;52.15;;
46753;SDS011;32500;50.620;3.400;2022-07-29T09:28:06;64.05;;;51.90;;
46753;SDS011;32500;50.620;3.400;2022-07-29T09:30:32;65.63;;;51.97;;
46753;SDS011;32500;50.620;3.400;2022-07-29T09:32:59;65.00;;;51.80;;
46753;SDS011;32500;50.620;3.400;2022-07-29T09:35:26;66.82;;;51.85;;
46753;SDS011;32500;50.620;3.400;2022-07-29T09:37:53;64.15;;;52.05;;
46753;SDS011;32500;50.620;3.400;2022-07-29T09:40:26;67.93;;;52.10;;
46753;SDS011;32500;50.620;3.400;2022-07-29T09:42:52;64.57;;;52.08;;
46753;SDS011;32500;50.620;3.400;2022-07-29T09:45:32;66.45;;;52.03;;
46753;SDS011;32500;50.620;3.400;2022-07-29T09:47:59;64.70;;;51.70;;
46753;SDS011;32500;50.620;3.400;2022-07-29T09:50:38;67.65;;;52.22;;
46753;SDS011;32500;50.620;3.400;2022-07-29T09:53:05;68.85;;;51.97;;
46753;SDS011;32500;50.620;3.400;2022-07-29T09:55:31;64.20;;;52.17;;
46753;SDS011;32500;50.620;3.400;2022-07-29T09:58:39;63.75;;;51.72;;
46753;SDS011;32500;50.620;3.400;2022-07-29T10:00:47;66.70;;;52.10;;
46753;SDS011;32500;50.620;3.400;2022-07-29T10:03:13;62.85;;;52.22;;
46753;SDS011;32500;50.620;3.400;2022-07-29T10:05:40;65.90;;;52.65;;
46753;SDS011;32500;50.620;3.400;2022-07-29T10:08:07;63.97;;;52.35;;
46753;SDS011;32500;50.620;3.400;2022-07-29T10:10:34;63.63;;;52.22;;
46753;SDS011;32500;50.620;3.400;2022-07-29T10:13:05;66.05;;;52.15;;
46753;SDS011;32500;50.620;3.400;2022-07-29T10:15:34;63.42;;;52.10;;
46753;SDS011;32500;50.620;3.400;2022-07-29T10:18:04;72.40;;;53.40;;
46753;SDS011;32500;50.620;3.400;2022-07-29T10:20:30;71.57;;;53.25;;
46753;SDS011;32500;50.620;3.400;2022-07-29T10:22:56;65.38;;;52.35;;
46753;SDS011;32500;50.620;3.400;2022-07-29T10:25:22;65.47;;;52.50;;
46753;SDS011;32500;50.620;3.400;2022-07-29T10:27:49;67.07;;;52.53;;
46753;SDS011;32500;50.620;3.400;2022-07-29T10:30:18;64.00;;;52.03;;
46753;SDS011;32500;50.620;3.400;2022-07-29T10:32:57;66.95;;;52.05;;
46753;SDS011;32500;50.620;3.400;2022-07-29T10:41:11;69.78;;;51.70;;
46753;SDS011;32500;50.620;3.400;2022-07-29T10:44:05;64.90;;;51.35;;
46753;SDS011;32500;50.620;3.400;2022-07-29T10:46:34;66.65;;;51.90;;
46753;SDS011;32500;50.620;3.400;2022-07-29T10:52:21;67.25;;;52.40;;
46753;SDS011;32500;50.620;3.400;2022-07-29T10:59:48;65.85;;;52.08;;
46753;SDS011;32500;50.620;3.400;2022-07-29T11:07:26;67.38;;;52.63;;
46753;SDS011;32500;50.620;3.400;2022-07-29T11:15:07;65.03;;;52.92;;
46753;SDS011;32500;50.620;3.400;2022-07-29T11:22:59;68.63;;;52.63;;
46753;SDS011;32500;50.620;3.400;2022-07-29T11:25:25;64.65;;;52.53;;
46753;SDS011;32500;50.620;3.400;2022-07-29T11:27:51;66.28;;;53.35;;
46753;SDS011;32500;50.620;3.400;2022-07-29T11:30:19;68.70;;;52.90;;
46753;SDS011;32500;50.620;3.400;2022-07-29T11:32:45;65.35;;;53.03;;
46753;SDS011;32500;50.620;3.400;2022-07-29T11:38:30;66.75;;;53.00;;
46753;SDS011;32500;50.620;3.400;2022-07-29T11:43:58;68.53;;;52.95;;
46753;SDS011;32500;50.620;3.400;2022-07-29T11:46:46;64.00;;;52.28;;
46753;SDS011;32500;50.620;3.400;2022-07-29T11:49:23;66.00;;;52.88;;
46753;SDS011;32500;50.620;3.400;2022-07-29T11:51:55;66.70;;;53.30;;
46753;SDS011;32500;50.620;3.400;2022-07-29T11:54:23;67.47;;;52.70;;
46753;SDS011;32500;50.620;3.400;2022-07-29T11:56:51;66.72;;;53.10;;
46753;SDS011;32500;50.620;3.400;2022-07-29T11:59:17;66.97;;;52.63;;
46753;SDS011;32500;50.620;3.400;2022-07-29T12:01:57;64.63;;;52.45;;
46753;SDS011;32500;50.620;3.400;2022-07-29T12:04:24;72.20;;;52.70;;
46753;SDS011;32500;50.620;3.400;2022-07-29T12:06:51;65.47;;;52.67;;
46753;SDS011;32500;50.620;3.400;2022-07-29T12:09:20;64.75;;;52.90;;
46753;SDS011;32500;50.620;3.400;2022-07-29T12:11:47;65.30;;;52.70;;
46753;SDS011;32500;50.620;3.400;2022-07-29T12:14:32;66.75;;;52.92;;
46753;SDS011;32500;50.620;3.400;2022-07-29T12:16:58;65.18;;;52.40;;
46753;SDS011;32500;50.620;3.400;2022-07-29T12:19:25;68.95;;;52.53;;
46753;SDS011;32500;50.620;3.400;2022-07-29T12:21:53;65.57;;;53.05;;
46753;SDS011;32500;50.620;3.400;2022-07-29T12:24:20;69.45;;;52.60;;
46753;SDS011;32500;50.620;3.400;2022-07-29T12:26:59;66.22;;;52.60;;
46753;SDS011;32500;50.620;3.400;2022-07-29T12:29:25;64.50;;;52.35;;
46753;SDS011;32500;50.620;3.400;2022-07-29T12:31:52;65.70;;;52.60;;
46753;SDS011;32500;50.620;3.400;2022-07-29T12:34:19;69.75;;;52.47;;
46753;SDS011;32500;50.620;3.400;2022-07-29T12:36:47;68.15;;;52.40;;
46753;SDS011;32500;50.620;3.400;2022-07-29T12:39:14;63.50;;;52.17;;
46753;SDS011;32500;50.620;3.400;2022-07-29T12:41:41;67.03;;;52.17;;
46753;SDS011;32500;50.620;3.400;2022-07-29T12:44:07;64.10;;;52.22;;
46753;SDS011;32500;50.620;3.400;2022-07-29T12:46:33;65.90;;;52.58;;
46753;SDS011;32500;50.620;3.400;2022-07-29T12:48:58;66.75;;;52.30;;
46753;SDS011;32500;50.620;3.400;2022-07-29T12:54:02;65.18;;;52.25;;
46753;SDS011;32500;50.620;3.400;2022-07-29T12:56:29;66.07;;;52.05;;
46753;SDS011;32500;50.620;3.400;2022-07-29T12:58:55;67.15;;;52.40;;
46753;SDS011;32500;50.620;3.400;2022-07-29T13:01:21;67.90;;;52.47;;
46753;SDS011;32500;50.620;3.400;2022-07-29T13:11:46;65.90;;;52.28;;
46753;SDS011;32500;50.620;3.400;2022-07-29T13:14:30;65.55;;;52.63;;
46753;SDS011;32500;50.620;3.400;2022-07-29T13:19:51;68.47;;;52.63;;
46753;SDS011;32500;50.620;3.400;2022-07-29T13:22:29;68.65;;;52.53;;
46753;SDS011;32500;50.620;3.400;2022-07-29T13:24:55;65.88;;;52.30;;
46753;SDS011;32500;50.620;3.400;2022-07-29T13:27:33;66.85;;;52.72;;
46753;SDS011;32500;50.620;3.400;2022-07-29T13:30:02;68.43;;;52.47;;
46753;SDS011;32500;50.620;3.400;2022-07-29T13:32:32;70.03;;;52.05;;
46753;SDS011;32500;50.620;3.400;2022-07-29T13:35:05;67.25;;;52.25;;
46753;SDS011;32500;50.620;3.400;2022-07-29T13:37:40;64.38;;;52.38;;
46753;SDS011;32500;50.620;3.400;2022-07-29T13:40:07;66.78;;;52.65;;
46753;SDS011;32500;50.620;3.400;2022-07-29T13:42:34;65.72;;;52.25;;
46753;SDS011;32500;50.620;3.400;2022-07-29T13:45:00;64.80;;;52.22;;
46753;SDS011;32500;50.620;3.400;2022-07-29T13:47:26;66.25;;;52.63;;
46753;SDS011;32500;50.620;3.400;2022-07-29T13:49:56;65.87;;;52.13;;
46753;SDS011;32500;50.620;3.400;2022-07-29T13:52:23;66.68;;;52.35;;
46753;SDS011;32500;50.620;3.400;2022-07-29T13:54:49;67.75;;;52.42;;
46753;SDS011;32500;50.620;3.400;2022-07-29T13:57:15;65.30;;;52.65;;
46753;SDS011;32500;50.620;3.400;2022-07-29T13:59:41;65.00;;;52.28;;
46753;SDS011;32500;50.620;3.400;2022-07-29T14:02:07;67.40;;;52.50;;
46753;SDS011;32500;50.620;3.400;2022-07-29T14:04:35;65.60;;;52.42;;
46753;SDS011;32500;50.620;3.400;2022-07-29T14:07:01;66.05;;;52.25;;
46753;SDS011;32500;50.620;3.400;2022-07-29T14:09:27;67.45;;;52.53;;
46753;SDS011;32500;50.620;3.400;2022-07-29T14:11:52;64.15;;;52.38;;
46753;SDS011;32500;50.620;3.400;2022-07-29T14:14:19;63.58;;;52.25;;
46753;SDS011;32500;50.620;3.400;2022-07-29T14:16:45;66.38;;;52.30;;
46753;SDS011;32500;50.620;3.400;2022-07-29T14:19:11;68.10;;;52.35;;
46753;SDS011;32500;50.620;3.400;2022-07-29T14:21:37;65.10;;;52.22;;
46753;SDS011;32500;50.620;3.400;2022-07-29T14:24:03;64.65;;;52.22;;
46753;SDS011;32500;50.620;3.400;2022-07-29T14:26:29;65.30;;;52.28;;
46753;SDS011;32500;50.620;3.400;2022-07-29T14:28:55;65.72;;;52.42;;
46753;SDS011;32500;50.620;3.400;2022-07-29T14:31:21;64.88;;;52.42;;
46753;SDS011;32500;50.620;3.400;2022-07-29T14:33:46;66.75;;;52.15;;
46753;SDS011;32500;50.620;3.400;2022-07-29T14:36:12;63.90;;;52.05;;
46753;SDS011;32500;50.620;3.400;2022-07-29T14:38:38;68.78;;;52.47;;
46753;SDS011;32500;50.620;3.400;2022-07-29T14:41:05;65.15;;;52.30;;
46753;SDS011;32500;50.620;3.400;2022-07-29T14:43:32;64.47;;;52.30;;
46753;SDS011;32500;50.620;3.400;2022-07-29T14:45:59;65.20;;;52.45;;
46753;SDS011;32500;50.620;3.400;2022-07-29T14:48:25;65.60;;;52.35;;
46753;SDS011;32500;50.620;3.400;2022-07-29T14:50:51;65.30;;;52.00;;
46753;SDS011;32500;50.620;3.400;2022-07-29T14:53:16;64.75;;;52.08;;
46753;SDS011;32500;50.620;3.400;2022-07-29T14:55:42;65.15;;;52.25;;
46753;SDS011;32500;50.620;3.400;2022-07-29T14:58:09;67.78;;;52.78;;
46753;SDS011;32500;50.620;3.400;2022-07-29T15:00:35;64.32;;;52.30;;
46753;SDS011;32500;50.620;3.400;2022-07-29T15:03:01;65.03;;;52.08;;
46753;SDS011;32500;50.620;3.400;2022-07-29T15:05:28;66.18;;;52.22;;
46753;SDS011;32500;50.620;3.400;2022-07-29T15:07:54;64.80;;;52.15;;
46753;SDS011;32500;50.620;3.400;2022-07-29T15:10:20;65.75;;;52.67;;
46753;SDS011;32500;50.620;3.400;2022-07-29T15:12:46;65.55;;;52.38;;
46753;SDS011;32500;50.620;3.400;2022-07-29T15:15:11;65.13;;;52.17;;
46753;SDS011;32500;50.620;3.400;2022-07-29T15:17:37;64.22;;;52.65;;
46753;SDS011;32500;50.620;3.400;2022-07-29T15:20:03;70.13;;;52.75;;
46753;SDS011;32500;50.620;3.400;2022-07-29T15:22:29;64.85;;;52.45;;